sensor_id;sensor_type;location;lat;lon;timestamp;temperature;humidity
52575;DHT22;38468;48.114;-1.684;2023-05-07T00:01:12;16.50;78.90
52575;DHT22;38468;48.114;-1.684;2023-05-07T00:03:13;16.50;78.90
52575;DHT22;38468;48.114;-1.684;2023-05-07T00:05:14;16.40;78.70
52575;DHT22;38468;48.114;-1.684;2023-05-07T00:07:15;16.40;78.80
52575;DHT22;38468;48.114;-1.684;2023-05-07T00:09:16;16.40;78.60
52575;DHT22;38468;48.114;-1.684;2023-05-07T00:11:16;16.40;78.70
52575;DHT22;38468;48.114;-1.684;2023-05-07T00:13:17;16.40;78.60
52575;DHT22;38468;48.114;-1.684;2023-05-07T00:15:18;16.50;78.70
52575;DHT22;38468;48.114;-1.684;2023-05-07T00:17:18;16.50;78.50
52575;DHT22;38468;48.114;-1.684;2023-05-07T00:19:20;16.40;78.70
52575;DHT22;38468;48.114;-1.684;2023-05-07T00:21:20;16.40;78.60
52575;DHT22;38468;48.114;-1.684;2023-05-07T00:23:22;16.40;78.70
52575;DHT22;38468;48.114;-1.684;2023-05-07T00:25:22;16.40;78.70
52575;DHT22;38468;48.114;-1.684;2023-05-07T00:27:24;16.40;78.70
52575;DHT22;38468;48.114;-1.684;2023-05-07T00:29:25;16.40;78.90
52575;DHT22;38468;48.114;-1.684;2023-05-07T00:31:25;16.40;78.90
52575;DHT22;38468;48.114;-1.684;2023-05-07T00:33:26;16.40;78.90
52575;DHT22;38468;48.114;-1.684;2023-05-07T00:35:28;16.30;78.80
52575;DHT22;38468;48.114;-1.684;2023-05-07T00:37:30;16.30;78.90
52575;DHT22;38468;48.114;-1.684;2023-05-07T00:39:30;16.30;79.00
52575;DHT22;38468;48.114;-1.684;2023-05-07T00:41:31;16.30;79.00
52575;DHT22;38468;48.114;-1.684;2023-05-07T00:43:31;16.30;79.00
52575;DHT22;38468;48.114;-1.684;2023-05-07T00:45:33;16.30;78.90
52575;DHT22;38468;48.114;-1.684;2023-05-07T00:47:34;16.30;78.60
52575;DHT22;38468;48.114;-1.684;2023-05-07T00:49:39;16.30;78.80
52575;DHT22;38468;48.114;-1.684;2023-05-07T00:51:41;16.20;78.70
52575;DHT22;38468;48.114;-1.684;2023-05-07T00:53:42;16.20;78.60
52575;DHT22;38468;48.114;-1.684;2023-05-07T00:55:43;16.30;78.70
52575;DHT22;38468;48.114;-1.684;2023-05-07T00:57:44;16.10;78.90
52575;DHT22;38468;48.114;-1.684;2023-05-07T00:59:45;16.10;79.20
52575;DHT22;38468;48.114;-1.684;2023-05-07T01:01:46;16.10;79.00
52575;DHT22;38468;48.114;-1.684;2023-05-07T01:03:46;16.10;79.20
52575;DHT22;38468;48.114;-1.684;2023-05-07T01:05:47;16.10;79.30
52575;DHT22;38468;48.114;-1.684;2023-05-07T01:07:50;16.00;79.50
52575;DHT22;38468;48.114;-1.684;2023-05-07T01:09:52;16.00;79.30
52575;DHT22;38468;48.114;-1.684;2023-05-07T01:11:53;16.00;79.40
52575;DHT22;38468;48.114;-1.684;2023-05-07T01:13:55;16.00;79.30
52575;DHT22;38468;48.114;-1.684;2023-05-07T01:15:56;16.00;79.40
52575;DHT22;38468;48.114;-1.684;2023-05-07T01:17:56;16.00;79.70
52575;DHT22;38468;48.114;-1.684;2023-05-07T01:19:57;16.00;79.50
52575;DHT22;38468;48.114;-1.684;2023-05-07T01:22:03;16.00;79.50
52575;DHT22;38468;48.114;-1.684;2023-05-07T01:24:04;15.90;79.70
52575;DHT22;38468;48.114;-1.684;2023-05-07T01:26:06;15.80;80.20
52575;DHT22;38468;48.114;-1.684;2023-05-07T01:28:06;15.80;80.00
52575;DHT22;38468;48.114;-1.684;2023-05-07T01:30:07;15.90;79.90
52575;DHT22;38468;48.114;-1.684;2023-05-07T01:32:08;15.90;79.80
52575;DHT22;38468;48.114;-1.684;2023-05-07T01:34:11;15.90;80.00
52575;DHT22;38468;48.114;-1.684;2023-05-07T01:36:13;15.80;80.20
52575;DHT22;38468;48.114;-1.684;2023-05-07T01:38:15;15.90;80.20
52575;DHT22;38468;48.114;-1.684;2023-05-07T01:40:16;15.80;80.60
52575;DHT22;38468;48.114;-1.684;2023-05-07T01:42:17;15.80;80.60
52575;DHT22;38468;48.114;-1.684;2023-05-07T01:44:18;15.70;80.80
52575;DHT22;38468;48.114;-1.684;2023-05-07T01:46:20;15.80;80.60
52575;DHT22;38468;48.114;-1.684;2023-05-07T01:48:21;15.80;80.40
52575;DHT22;38468;48.114;-1.684;2023-05-07T01:50:23;15.70;80.80
52575;DHT22;38468;48.114;-1.684;2023-05-07T01:52:23;15.70;80.70
52575;DHT22;38468;48.114;-1.684;2023-05-07T01:54:26;15.70;80.90
52575;DHT22;38468;48.114;-1.684;2023-05-07T01:56:28;15.70;80.80
52575;DHT22;38468;48.114;-1.684;2023-05-07T01:58:28;15.70;80.70
52575;DHT22;38468;48.114;-1.684;2023-05-07T02:00:29;15.70;80.70
52575;DHT22;38468;48.114;-1.684;2023-05-07T02:02:30;15.70;80.50
52575;DHT22;38468;48.114;-1.684;2023-05-07T02:04:30;15.60;81.00
52575;DHT22;38468;48.114;-1.684;2023-05-07T02:06:31;15.50;81.30
52575;DHT22;38468;48.114;-1.684;2023-05-07T02:08:32;15.50;81.40
52575;DHT22;38468;48.114;-1.684;2023-05-07T02:10:33;15.50;81.30
52575;DHT22;38468;48.114;-1.684;2023-05-07T02:12:33;15.50;81.40
52575;DHT22;38468;48.114;-1.684;2023-05-07T02:14:34;15.50;81.50
52575;DHT22;38468;48.114;-1.684;2023-05-07T02:16:35;15.50;81.50
52575;DHT22;38468;48.114;-1.684;2023-05-07T02:18:35;15.50;81.60
52575;DHT22;38468;48.114;-1.684;2023-05-07T02:20:36;15.40;81.60
52575;DHT22;38468;48.114;-1.684;2023-05-07T02:22:36;15.40;81.70
52575;DHT22;38468;48.114;-1.684;2023-05-07T02:24:37;15.50;81.40
52575;DHT22;38468;48.114;-1.684;2023-05-07T02:26:39;15.50;81.40
52575;DHT22;38468;48.114;-1.684;2023-05-07T02:28:39;15.40;81.60
52575;DHT22;38468;48.114;-1.684;2023-05-07T02:30:40;15.50;81.50
52575;DHT22;38468;48.114;-1.684;2023-05-07T02:32:40;15.50;81.40
52575;DHT22;38468;48.114;-1.684;2023-05-07T02:34:41;15.50;81.30
52575;DHT22;38468;48.114;-1.684;2023-05-07T02:36:42;15.50;81.30
52575;DHT22;38468;48.114;-1.684;2023-05-07T02:38:43;15.40;81.60
52575;DHT22;38468;48.114;-1.684;2023-05-07T02:40:43;15.50;81.40
52575;DHT22;38468;48.114;-1.684;2023-05-07T02:42:44;15.40;81.60
52575;DHT22;38468;48.114;-1.684;2023-05-07T02:44:45;15.40;82.00
52575;DHT22;38468;48.114;-1.684;2023-05-07T02:46:45;15.50;81.80
52575;DHT22;38468;48.114;-1.684;2023-05-07T02:48:46;15.50;81.50
52575;DHT22;38468;48.114;-1.684;2023-05-07T02:50:47;15.50;81.70
52575;DHT22;38468;48.114;-1.684;2023-05-07T02:52:47;15.40;81.80
52575;DHT22;38468;48.114;-1.684;2023-05-07T02:54:48;15.50;81.70
52575;DHT22;38468;48.114;-1.684;2023-05-07T02:56:49;15.50;81.70
52575;DHT22;38468;48.114;-1.684;2023-05-07T02:58:49;15.50;81.60
52575;DHT22;38468;48.114;-1.684;2023-05-07T03:00:50;15.40;81.90
52575;DHT22;38468;48.114;-1.684;2023-05-07T03:02:51;15.50;82.00
52575;DHT22;38468;48.114;-1.684;2023-05-07T03:04:52;15.50;81.80
52575;DHT22;38468;48.114;-1.684;2023-05-07T03:06:52;15.50;81.60
52575;DHT22;38468;48.114;-1.684;2023-05-07T03:08:53;15.50;81.80
52575;DHT22;38468;48.114;-1.684;2023-05-07T03:10:54;15.50;81.70
52575;DHT22;38468;48.114;-1.684;2023-05-07T03:12:54;15.50;81.60
52575;DHT22;38468;48.114;-1.684;2023-05-07T03:14:55;15.50;81.60
52575;DHT22;38468;48.114;-1.684;2023-05-07T03:16:56;15.40;81.70
52575;DHT22;38468;48.114;-1.684;2023-05-07T03:18:57;15.40;82.00
52575;DHT22;38468;48.114;-1.684;2023-05-07T03:20:57;15.40;81.90
52575;DHT22;38468;48.114;-1.684;2023-05-07T03:22:58;15.50;81.70
52575;DHT22;38468;48.114;-1.684;2023-05-07T03:24:59;15.40;81.60
52575;DHT22;38468;48.114;-1.684;2023-05-07T03:27:00;15.50;81.50
52575;DHT22;38468;48.114;-1.684;2023-05-07T03:29:01;15.50;81.50
52575;DHT22;38468;48.114;-1.684;2023-05-07T03:31:02;15.50;81.60
52575;DHT22;38468;48.114;-1.684;2023-05-07T03:33:02;15.50;81.40
52575;DHT22;38468;48.114;-1.684;2023-05-07T03:35:03;15.50;81.50
52575;DHT22;38468;48.114;-1.684;2023-05-07T03:37:04;15.50;81.40
52575;DHT22;38468;48.114;-1.684;2023-05-07T03:39:05;15.50;81.40
52575;DHT22;38468;48.114;-1.684;2023-05-07T03:41:05;15.50;81.40
52575;DHT22;38468;48.114;-1.684;2023-05-07T03:43:06;15.50;81.80
52575;DHT22;38468;48.114;-1.684;2023-05-07T03:45:07;15.50;81.70
52575;DHT22;38468;48.114;-1.684;2023-05-07T03:47:08;15.50;81.80
52575;DHT22;38468;48.114;-1.684;2023-05-07T03:49:10;15.50;81.80
52575;DHT22;38468;48.114;-1.684;2023-05-07T03:51:11;15.50;81.90
52575;DHT22;38468;48.114;-1.684;2023-05-07T03:53:11;15.50;81.70
52575;DHT22;38468;48.114;-1.684;2023-05-07T03:55:12;15.40;82.10
52575;DHT22;38468;48.114;-1.684;2023-05-07T03:57:13;15.40;82.00
52575;DHT22;38468;48.114;-1.684;2023-05-07T03:59:13;15.50;81.80
52575;DHT22;38468;48.114;-1.684;2023-05-07T04:01:14;15.40;81.90
52575;DHT22;38468;48.114;-1.684;2023-05-07T04:03:15;15.40;81.90
52575;DHT22;38468;48.114;-1.684;2023-05-07T04:05:16;15.40;81.90
52575;DHT22;38468;48.114;-1.684;2023-05-07T04:07:17;15.40;81.80
52575;DHT22;38468;48.114;-1.684;2023-05-07T04:09:17;15.40;81.80
52575;DHT22;38468;48.114;-1.684;2023-05-07T04:11:18;15.40;81.80
52575;DHT22;38468;48.114;-1.684;2023-05-07T04:13:19;15.40;81.80
52575;DHT22;38468;48.114;-1.684;2023-05-07T04:15:19;15.40;81.80
52575;DHT22;38468;48.114;-1.684;2023-05-07T04:17:20;15.40;82.10
52575;DHT22;38468;48.114;-1.684;2023-05-07T04:19:21;15.40;82.00
52575;DHT22;38468;48.114;-1.684;2023-05-07T04:21:21;15.40;82.30
52575;DHT22;38468;48.114;-1.684;2023-05-07T04:23:22;15.40;82.20
52575;DHT22;38468;48.114;-1.684;2023-05-07T04:25:23;15.40;82.30
52575;DHT22;38468;48.114;-1.684;2023-05-07T04:27:27;15.30;82.40
52575;DHT22;38468;48.114;-1.684;2023-05-07T04:29:28;15.30;82.50
52575;DHT22;38468;48.114;-1.684;2023-05-07T04:31:29;15.30;82.70
52575;DHT22;38468;48.114;-1.684;2023-05-07T04:33:31;15.30;82.60
52575;DHT22;38468;48.114;-1.684;2023-05-07T04:35:31;15.40;82.50
52575;DHT22;38468;48.114;-1.684;2023-05-07T04:37:32;15.30;82.70
52575;DHT22;38468;48.114;-1.684;2023-05-07T04:39:33;15.30;82.90
52575;DHT22;38468;48.114;-1.684;2023-05-07T04:41:35;15.30;82.80
52575;DHT22;38468;48.114;-1.684;2023-05-07T04:43:36;15.30;82.80
52575;DHT22;38468;48.114;-1.684;2023-05-07T04:45:37;15.30;82.70
52575;DHT22;38468;48.114;-1.684;2023-05-07T04:47:40;15.30;82.70
52575;DHT22;38468;48.114;-1.684;2023-05-07T04:49:40;15.40;82.50
52575;DHT22;38468;48.114;-1.684;2023-05-07T04:51:41;15.40;82.60
52575;DHT22;38468;48.114;-1.684;2023-05-07T04:53:43;15.40;82.70
52575;DHT22;38468;48.114;-1.684;2023-05-07T04:55:44;15.30;83.10
52575;DHT22;38468;48.114;-1.684;2023-05-07T04:57:48;15.30;83.20
52575;DHT22;38468;48.114;-1.684;2023-05-07T04:59:49;15.40;83.30
52575;DHT22;38468;48.114;-1.684;2023-05-07T05:01:49;15.30;83.00
52575;DHT22;38468;48.114;-1.684;2023-05-07T05:03:50;15.30;83.20
52575;DHT22;38468;48.114;-1.684;2023-05-07T05:05:51;15.40;83.10
52575;DHT22;38468;48.114;-1.684;2023-05-07T05:07:52;15.40;83.00
52575;DHT22;38468;48.114;-1.684;2023-05-07T05:09:53;15.40;83.00
52575;DHT22;38468;48.114;-1.684;2023-05-07T05:11:55;15.40;82.90
52575;DHT22;38468;48.114;-1.684;2023-05-07T05:13:56;15.40;83.00
52575;DHT22;38468;48.114;-1.684;2023-05-07T05:15:57;15.40;83.50
52575;DHT22;38468;48.114;-1.684;2023-05-07T05:17:57;15.40;83.40
52575;DHT22;38468;48.114;-1.684;2023-05-07T05:19:58;15.30;83.50
52575;DHT22;38468;48.114;-1.684;2023-05-07T05:21:58;15.40;83.60
52575;DHT22;38468;48.114;-1.684;2023-05-07T05:24:01;15.30;83.90
52575;DHT22;38468;48.114;-1.684;2023-05-07T05:26:02;15.30;84.00
52575;DHT22;38468;48.114;-1.684;2023-05-07T05:28:02;15.40;83.90
52575;DHT22;38468;48.114;-1.684;2023-05-07T05:30:03;15.40;83.90
52575;DHT22;38468;48.114;-1.684;2023-05-07T05:32:04;15.40;84.00
52575;DHT22;38468;48.114;-1.684;2023-05-07T05:34:05;15.40;83.90
52575;DHT22;38468;48.114;-1.684;2023-05-07T05:36:06;15.40;84.00
52575;DHT22;38468;48.114;-1.684;2023-05-07T05:38:09;15.50;84.10
52575;DHT22;38468;48.114;-1.684;2023-05-07T05:40:10;15.50;83.70
52575;DHT22;38468;48.114;-1.684;2023-05-07T05:42:11;15.50;83.50
52575;DHT22;38468;48.114;-1.684;2023-05-07T05:44:12;15.50;83.50
52575;DHT22;38468;48.114;-1.684;2023-05-07T05:46:12;15.50;83.60
52575;DHT22;38468;48.114;-1.684;2023-05-07T05:48:13;15.50;83.50
52575;DHT22;38468;48.114;-1.684;2023-05-07T05:50:14;15.50;83.40
52575;DHT22;38468;48.114;-1.684;2023-05-07T05:52:14;15.40;83.30
52575;DHT22;38468;48.114;-1.684;2023-05-07T05:54:17;15.40;83.40
52575;DHT22;38468;48.114;-1.684;2023-05-07T05:56:17;15.50;83.30
52575;DHT22;38468;48.114;-1.684;2023-05-07T05:58:18;15.50;83.30
52575;DHT22;38468;48.114;-1.684;2023-05-07T06:00:19;15.40;83.30
52575;DHT22;38468;48.114;-1.684;2023-05-07T06:02:22;15.40;83.30
52575;DHT22;38468;48.114;-1.684;2023-05-07T06:04:23;15.40;83.50
52575;DHT22;38468;48.114;-1.684;2023-05-07T06:06:23;15.50;83.30
52575;DHT22;38468;48.114;-1.684;2023-05-07T06:08:24;15.50;83.40
52575;DHT22;38468;48.114;-1.684;2023-05-07T06:10:25;15.50;83.40
52575;DHT22;38468;48.114;-1.684;2023-05-07T06:12:27;15.50;83.40
52575;DHT22;38468;48.114;-1.684;2023-05-07T06:14:28;15.50;83.40
52575;DHT22;38468;48.114;-1.684;2023-05-07T06:16:28;15.50;83.40
52575;DHT22;38468;48.114;-1.684;2023-05-07T06:18:29;15.50;83.50
52575;DHT22;38468;48.114;-1.684;2023-05-07T06:20:30;15.50;83.40
52575;DHT22;38468;48.114;-1.684;2023-05-07T06:22:30;15.60;83.10
52575;DHT22;38468;48.114;-1.684;2023-05-07T06:24:31;15.60;83.10
52575;DHT22;38468;48.114;-1.684;2023-05-07T06:26:32;15.60;83.00
52575;DHT22;38468;48.114;-1.684;2023-05-07T06:28:32;15.70;83.10
52575;DHT22;38468;48.114;-1.684;2023-05-07T06:30:36;15.90;83.20
52575;DHT22;38468;48.114;-1.684;2023-05-07T06:32:37;15.90;82.90
52575;DHT22;38468;48.114;-1.684;2023-05-07T06:34:38;16.00;82.70
52575;DHT22;38468;48.114;-1.684;2023-05-07T06:36:40;16.10;82.60
52575;DHT22;38468;48.114;-1.684;2023-05-07T06:38:40;16.20;82.30
52575;DHT22;38468;48.114;-1.684;2023-05-07T06:40:41;16.20;82.20
52575;DHT22;38468;48.114;-1.684;2023-05-07T06:42:42;16.30;81.90
52575;DHT22;38468;48.114;-1.684;2023-05-07T06:44:42;16.30;81.80
52575;DHT22;38468;48.114;-1.684;2023-05-07T06:46:43;16.30;81.70
52575;DHT22;38468;48.114;-1.684;2023-05-07T06:48:44;16.30;81.70
52575;DHT22;38468;48.114;-1.684;2023-05-07T06:50:44;16.30;81.70
52575;DHT22;38468;48.114;-1.684;2023-05-07T06:52:45;16.30;81.70
52575;DHT22;38468;48.114;-1.684;2023-05-07T06:54:46;16.30;81.80
52575;DHT22;38468;48.114;-1.684;2023-05-07T06:56:47;16.30;81.70
52575;DHT22;38468;48.114;-1.684;2023-05-07T06:58:47;16.40;82.00
52575;DHT22;38468;48.114;-1.684;2023-05-07T07:00:48;16.30;82.10
52575;DHT22;38468;48.114;-1.684;2023-05-07T07:02:49;16.30;82.00
52575;DHT22;38468;48.114;-1.684;2023-05-07T07:04:49;16.30;82.40
52575;DHT22;38468;48.114;-1.684;2023-05-07T07:06:52;16.20;82.30
52575;DHT22;38468;48.114;-1.684;2023-05-07T07:08:53;16.20;82.60
52575;DHT22;38468;48.114;-1.684;2023-05-07T07:10:53;16.20;82.70
52575;DHT22;38468;48.114;-1.684;2023-05-07T07:12:54;16.10;82.80
52575;DHT22;38468;48.114;-1.684;2023-05-07T07:14:55;16.20;82.80
52575;DHT22;38468;48.114;-1.684;2023-05-07T07:16:55;16.00;83.00
52575;DHT22;38468;48.114;-1.684;2023-05-07T07:18:56;16.00;83.10
52575;DHT22;38468;48.114;-1.684;2023-05-07T07:20:57;16.00;83.00
52575;DHT22;38468;48.114;-1.684;2023-05-07T07:22:57;16.00;83.10
52575;DHT22;38468;48.114;-1.684;2023-05-07T07:24:58;15.90;83.20
52575;DHT22;38468;48.114;-1.684;2023-05-07T07:26:59;15.90;83.20
52575;DHT22;38468;48.114;-1.684;2023-05-07T07:29:00;16.00;83.10
52575;DHT22;38468;48.114;-1.684;2023-05-07T07:31:00;16.00;83.20
52575;DHT22;38468;48.114;-1.684;2023-05-07T07:33:01;15.90;83.20
52575;DHT22;38468;48.114;-1.684;2023-05-07T07:35:03;15.90;83.00
52575;DHT22;38468;48.114;-1.684;2023-05-07T07:37:05;15.90;83.10
52575;DHT22;38468;48.114;-1.684;2023-05-07T07:39:06;15.90;83.10
52575;DHT22;38468;48.114;-1.684;2023-05-07T07:41:10;15.90;83.40
52575;DHT22;38468;48.114;-1.684;2023-05-07T07:43:11;15.90;83.40
52575;DHT22;38468;48.114;-1.684;2023-05-07T07:45:11;15.90;83.20
52575;DHT22;38468;48.114;-1.684;2023-05-07T07:47:12;16.00;83.00
52575;DHT22;38468;48.114;-1.684;2023-05-07T07:49:14;16.00;83.10
52575;DHT22;38468;48.114;-1.684;2023-05-07T07:51:14;16.00;83.20
52575;DHT22;38468;48.114;-1.684;2023-05-07T07:53:15;15.90;82.90
52575;DHT22;38468;48.114;-1.684;2023-05-07T07:55:19;15.90;83.00
52575;DHT22;38468;48.114;-1.684;2023-05-07T07:57:22;15.90;82.90
52575;DHT22;38468;48.114;-1.684;2023-05-07T07:59:23;15.90;83.00
52575;DHT22;38468;48.114;-1.684;2023-05-07T08:01:23;15.90;83.00
52575;DHT22;38468;48.114;-1.684;2023-05-07T08:03:24;16.00;82.80
52575;DHT22;38468;48.114;-1.684;2023-05-07T08:05:25;15.90;82.90
52575;DHT22;38468;48.114;-1.684;2023-05-07T08:07:25;16.00;83.10
52575;DHT22;38468;48.114;-1.684;2023-05-07T08:09:26;16.00;82.70
52575;DHT22;38468;48.114;-1.684;2023-05-07T08:11:27;15.90;82.70
52575;DHT22;38468;48.114;-1.684;2023-05-07T08:13:27;15.90;82.90
52575;DHT22;38468;48.114;-1.684;2023-05-07T08:15:28;16.00;82.80
52575;DHT22;38468;48.114;-1.684;2023-05-07T08:17:29;15.90;82.70
52575;DHT22;38468;48.114;-1.684;2023-05-07T08:19:29;15.90;82.80
52575;DHT22;38468;48.114;-1.684;2023-05-07T08:21:30;15.90;82.50
52575;DHT22;38468;48.114;-1.684;2023-05-07T08:23:31;15.90;82.40
52575;DHT22;38468;48.114;-1.684;2023-05-07T08:25:33;15.80;81.90
52575;DHT22;38468;48.114;-1.684;2023-05-07T08:27:34;15.90;81.90
52575;DHT22;38468;48.114;-1.684;2023-05-07T08:29:35;15.90;82.00
52575;DHT22;38468;48.114;-1.684;2023-05-07T08:31:36;15.90;81.70
52575;DHT22;38468;48.114;-1.684;2023-05-07T08:33:36;15.90;81.50
52575;DHT22;38468;48.114;-1.684;2023-05-07T08:35:38;16.00;81.60
52575;DHT22;38468;48.114;-1.684;2023-05-07T08:37:39;16.10;81.70
52575;DHT22;38468;48.114;-1.684;2023-05-07T08:39:40;16.10;81.20
52575;DHT22;38468;48.114;-1.684;2023-05-07T08:41:40;16.10;80.60
52575;DHT22;38468;48.114;-1.684;2023-05-07T08:43:47;16.10;80.60
52575;DHT22;38468;48.114;-1.684;2023-05-07T08:45:49;16.20;80.60
52575;DHT22;38468;48.114;-1.684;2023-05-07T08:47:58;16.30;80.50
52575;DHT22;38468;48.114;-1.684;2023-05-07T08:50:01;16.30;80.20
52575;DHT22;38468;48.114;-1.684;2023-05-07T08:52:02;16.40;80.00
52575;DHT22;38468;48.114;-1.684;2023-05-07T08:54:03;16.50;79.90
52575;DHT22;38468;48.114;-1.684;2023-05-07T08:56:05;17.00;79.10
52575;DHT22;38468;48.114;-1.684;2023-05-07T08:58:06;17.40;78.20
52575;DHT22;38468;48.114;-1.684;2023-05-07T09:00:07;17.60;77.40
52575;DHT22;38468;48.114;-1.684;2023-05-07T09:02:10;18.20;77.00
52575;DHT22;38468;48.114;-1.684;2023-05-07T09:04:12;18.80;75.60
52575;DHT22;38468;48.114;-1.684;2023-05-07T09:06:13;19.30;72.20
52575;DHT22;38468;48.114;-1.684;2023-05-07T09:08:15;19.60;70.70
52575;DHT22;38468;48.114;-1.684;2023-05-07T09:10:16;19.50;70.10
52575;DHT22;38468;48.114;-1.684;2023-05-07T09:12:18;19.20;69.70
52575;DHT22;38468;48.114;-1.684;2023-05-07T09:14:21;19.10;71.00
52575;DHT22;38468;48.114;-1.684;2023-05-07T09:16:22;19.00;72.10
52575;DHT22;38468;48.114;-1.684;2023-05-07T09:18:24;18.80;72.40
52575;DHT22;38468;48.114;-1.684;2023-05-07T09:20:25;18.70;72.50
52575;DHT22;38468;48.114;-1.684;2023-05-07T09:22:26;18.60;73.20
52575;DHT22;38468;48.114;-1.684;2023-05-07T09:24:27;18.60;73.20
52575;DHT22;38468;48.114;-1.684;2023-05-07T09:26:29;18.50;73.20
52575;DHT22;38468;48.114;-1.684;2023-05-07T09:28:29;18.40;73.30
52575;DHT22;38468;48.114;-1.684;2023-05-07T09:30:31;18.30;72.30
52575;DHT22;38468;48.114;-1.684;2023-05-07T09:32:35;18.30;72.80
52575;DHT22;38468;48.114;-1.684;2023-05-07T09:34:38;18.30;73.10
52575;DHT22;38468;48.114;-1.684;2023-05-07T09:36:38;18.30;73.10
52575;DHT22;38468;48.114;-1.684;2023-05-07T09:38:40;18.30;72.80
52575;DHT22;38468;48.114;-1.684;2023-05-07T09:40:40;18.40;73.20
52575;DHT22;38468;48.114;-1.684;2023-05-07T09:42:41;18.30;72.80
52575;DHT22;38468;48.114;-1.684;2023-05-07T09:44:43;18.30;72.70
52575;DHT22;38468;48.114;-1.684;2023-05-07T09:46:47;18.30;72.70
52575;DHT22;38468;48.114;-1.684;2023-05-07T09:48:53;18.40;71.90
52575;DHT22;38468;48.114;-1.684;2023-05-07T09:50:57;18.30;71.60
52575;DHT22;38468;48.114;-1.684;2023-05-07T09:53:03;18.30;71.50
52575;DHT22;38468;48.114;-1.684;2023-05-07T09:55:04;18.40;72.20
52575;DHT22;38468;48.114;-1.684;2023-05-07T09:57:06;18.30;72.40
52575;DHT22;38468;48.114;-1.684;2023-05-07T09:59:08;18.30;72.00
52575;DHT22;38468;48.114;-1.684;2023-05-07T10:01:11;18.30;72.40
52575;DHT22;38468;48.114;-1.684;2023-05-07T10:03:13;18.20;72.50
52575;DHT22;38468;48.114;-1.684;2023-05-07T10:05:14;18.10;72.10
52575;DHT22;38468;48.114;-1.684;2023-05-07T10:07:16;18.10;72.30
52575;DHT22;38468;48.114;-1.684;2023-05-07T10:09:19;18.10;72.60
52575;DHT22;38468;48.114;-1.684;2023-05-07T10:11:21;18.10;72.70
52575;DHT22;38468;48.114;-1.684;2023-05-07T10:13:22;18.00;72.70
52575;DHT22;38468;48.114;-1.684;2023-05-07T10:15:23;18.00;73.20
52575;DHT22;38468;48.114;-1.684;2023-05-07T10:17:25;18.00;73.40
52575;DHT22;38468;48.114;-1.684;2023-05-07T10:19:26;18.00;73.00
52575;DHT22;38468;48.114;-1.684;2023-05-07T10:21:27;18.00;73.30
52575;DHT22;38468;48.114;-1.684;2023-05-07T10:23:31;18.00;72.70
52575;DHT22;38468;48.114;-1.684;2023-05-07T10:25:33;17.90;72.50
52575;DHT22;38468;48.114;-1.684;2023-05-07T10:27:34;17.90;72.20
52575;DHT22;38468;48.114;-1.684;2023-05-07T10:29:53;17.80;72.20
52575;DHT22;38468;48.114;-1.684;2023-05-07T10:34:12;17.90;72.70
52575;DHT22;38468;48.114;-1.684;2023-05-07T10:36:14;18.00;72.10
52575;DHT22;38468;48.114;-1.684;2023-05-07T10:38:15;18.10;71.90
52575;DHT22;38468;48.114;-1.684;2023-05-07T10:40:16;18.10;71.40
52575;DHT22;38468;48.114;-1.684;2023-05-07T10:42:18;18.20;71.90
52575;DHT22;38468;48.114;-1.684;2023-05-07T10:44:28;18.20;71.40
52575;DHT22;38468;48.114;-1.684;2023-05-07T10:46:29;18.20;71.30
52575;DHT22;38468;48.114;-1.684;2023-05-07T10:48:33;18.10;71.10
52575;DHT22;38468;48.114;-1.684;2023-05-07T10:50:34;18.10;71.40
52575;DHT22;38468;48.114;-1.684;2023-05-07T10:52:36;18.10;71.10
52575;DHT22;38468;48.114;-1.684;2023-05-07T10:54:36;18.00;71.40
52575;DHT22;38468;48.114;-1.684;2023-05-07T10:56:41;18.00;71.80
52575;DHT22;38468;48.114;-1.684;2023-05-07T10:58:43;18.00;72.00
52575;DHT22;38468;48.114;-1.684;2023-05-07T11:00:44;17.90;72.20
52575;DHT22;38468;48.114;-1.684;2023-05-07T11:05:22;17.90;71.90
52575;DHT22;38468;48.114;-1.684;2023-05-07T11:07:29;17.90;72.20
52575;DHT22;38468;48.114;-1.684;2023-05-07T11:11:52;17.80;72.00
52575;DHT22;38468;48.114;-1.684;2023-05-07T11:13:53;17.80;71.70
52575;DHT22;38468;48.114;-1.684;2023-05-07T11:15:54;17.80;71.70
52575;DHT22;38468;48.114;-1.684;2023-05-07T11:17:58;17.90;72.20
52575;DHT22;38468;48.114;-1.684;2023-05-07T11:20:00;17.90;72.20
52575;DHT22;38468;48.114;-1.684;2023-05-07T11:22:01;18.00;72.00
52575;DHT22;38468;48.114;-1.684;2023-05-07T11:24:06;18.00;71.90
52575;DHT22;38468;48.114;-1.684;2023-05-07T11:26:08;18.10;71.60
52575;DHT22;38468;48.114;-1.684;2023-05-07T11:28:10;18.10;71.80
52575;DHT22;38468;48.114;-1.684;2023-05-07T11:30:17;18.20;72.00
52575;DHT22;38468;48.114;-1.684;2023-05-07T11:32:28;18.30;71.70
52575;DHT22;38468;48.114;-1.684;2023-05-07T11:34:29;18.30;70.90
52575;DHT22;38468;48.114;-1.684;2023-05-07T11:36:32;18.40;71.20
52575;DHT22;38468;48.114;-1.684;2023-05-07T11:38:37;18.40;70.60
52575;DHT22;38468;48.114;-1.684;2023-05-07T11:40:57;18.40;70.20
52575;DHT22;38468;48.114;-1.684;2023-05-07T11:42:57;18.50;70.40
52575;DHT22;38468;48.114;-1.684;2023-05-07T11:44:58;18.50;70.50
52575;DHT22;38468;48.114;-1.684;2023-05-07T11:47:00;18.50;70.10
52575;DHT22;38468;48.114;-1.684;2023-05-07T11:49:02;18.50;70.40
52575;DHT22;38468;48.114;-1.684;2023-05-07T11:51:05;18.50;70.60
52575;DHT22;38468;48.114;-1.684;2023-05-07T11:53:09;18.50;70.00
52575;DHT22;38468;48.114;-1.684;2023-05-07T11:55:09;18.40;70.20
52575;DHT22;38468;48.114;-1.684;2023-05-07T11:57:14;18.40;69.80
52575;DHT22;38468;48.114;-1.684;2023-05-07T11:59:18;18.30;70.00
52575;DHT22;38468;48.114;-1.684;2023-05-07T12:01:19;18.20;70.40
52575;DHT22;38468;48.114;-1.684;2023-05-07T12:03:20;18.10;70.30
52575;DHT22;38468;48.114;-1.684;2023-05-07T12:05:21;18.00;70.30
52575;DHT22;38468;48.114;-1.684;2023-05-07T12:07:23;18.00;70.60
52575;DHT22;38468;48.114;-1.684;2023-05-07T12:09:24;18.00;70.70
52575;DHT22;38468;48.114;-1.684;2023-05-07T12:11:26;17.90;70.80
52575;DHT22;38468;48.114;-1.684;2023-05-07T12:13:26;17.90;70.70
52575;DHT22;38468;48.114;-1.684;2023-05-07T12:15:27;18.00;70.50
52575;DHT22;38468;48.114;-1.684;2023-05-07T12:17:28;17.90;70.20
52575;DHT22;38468;48.114;-1.684;2023-05-07T12:19:30;17.90;70.10
52575;DHT22;38468;48.114;-1.684;2023-05-07T12:21:31;17.90;70.50
52575;DHT22;38468;48.114;-1.684;2023-05-07T12:23:32;18.00;70.50
52575;DHT22;38468;48.114;-1.684;2023-05-07T12:25:37;18.00;70.50
52575;DHT22;38468;48.114;-1.684;2023-05-07T12:27:40;18.00;70.70
52575;DHT22;38468;48.114;-1.684;2023-05-07T12:29:47;18.00;70.60
52575;DHT22;38468;48.114;-1.684;2023-05-07T12:31:50;18.00;70.40
52575;DHT22;38468;48.114;-1.684;2023-05-07T12:33:50;18.00;70.00
52575;DHT22;38468;48.114;-1.684;2023-05-07T12:35:53;18.00;70.50
52575;DHT22;38468;48.114;-1.684;2023-05-07T12:37:58;18.10;70.50
52575;DHT22;38468;48.114;-1.684;2023-05-07T12:40:08;18.20;70.20
52575;DHT22;38468;48.114;-1.684;2023-05-07T12:42:23;18.10;70.20